createdAt,value
2018-06-02T00:00:16.408Z,58.20
2018-06-02T00:01:16.407Z,59.00
2018-06-02T00:02:16.403Z,57.20
2018-06-02T00:03:16.402Z,58.80
2018-06-02T00:04:16.404Z,57.40
2018-06-02T00:05:16.403Z,58.50
2018-06-02T00:06:16.404Z,58.50
2018-06-02T00:07:16.403Z,58.10
2018-06-02T00:08:16.395Z,58.30
2018-06-02T00:09:16.395Z,56.90
2018-06-02T00:10:16.396Z,59.70
2018-06-02T00:11:16.397Z,57.10
2018-06-02T00:12:16.395Z,56.70
2018-06-02T00:13:16.395Z,56.90
2018-06-02T00:14:16.393Z,57.20
2018-06-02T00:15:16.394Z,58.40
2018-06-02T00:16:16.386Z,58.40
2018-06-02T00:17:16.385Z,57.10
2018-06-02T00:18:16.388Z,56.50
2018-06-02T00:19:16.388Z,58.30
2018-06-02T00:20:16.381Z,56.90
2018-06-02T00:21:16.380Z,56.50
2018-06-02T00:22:16.381Z,56.90
2018-06-02T00:23:16.380Z,56.10
2018-06-02T00:24:16.381Z,58.00
2018-06-02T00:25:16.382Z,56.60
2018-06-02T00:26:16.380Z,56.10
2018-06-02T00:27:16.380Z,56.80
2018-06-02T00:28:16.376Z,57.20
2018-06-02T00:29:16.373Z,56.40
2018-06-02T00:30:16.374Z,54.30
2018-06-02T00:31:16.382Z,55.10
2018-06-02T00:32:16.372Z,56.90
2018-06-02T00:33:16.373Z,56.70
2018-06-02T00:34:16.369Z,56.00
2018-06-02T00:35:16.365Z,56.20
2018-06-02T00:36:16.367Z,54.40
2018-06-02T00:37:16.370Z,53.70
2018-06-02T00:38:16.367Z,55.20
2018-06-02T00:39:16.366Z,55.60
2018-06-02T00:40:16.358Z,55.00
2018-06-02T00:41:16.357Z,54.80
2018-06-02T00:42:16.357Z,55.60
2018-06-02T00:43:16.356Z,57.60
2018-06-02T00:44:16.358Z,56.60
2018-06-02T00:45:16.357Z,55.20
2018-06-02T00:46:16.356Z,55.10
2018-06-02T00:47:16.355Z,56.20
2018-06-02T00:48:16.349Z,55.20
2018-06-02T00:49:16.348Z,54.20
2018-06-02T00:50:16.352Z,54.40
2018-06-02T00:51:16.352Z,54.40
2018-06-02T00:52:16.345Z,56.60
2018-06-02T00:53:16.345Z,54.60
2018-06-02T00:54:16.353Z,55.10
2018-06-02T00:55:16.343Z,54.80
2018-06-02T00:56:16.346Z,51.10
2018-06-02T00:57:16.344Z,50.80
2018-06-02T00:58:16.343Z,50.00
2018-06-02T00:59:16.346Z,49.00
2018-06-02T01:00:16.336Z,49.50
2018-06-02T01:01:16.334Z,47.60
2018-06-02T01:02:16.334Z,48.00
2018-06-02T01:03:16.335Z,47.80
2018-06-02T01:04:16.337Z,47.10
2018-06-02T01:05:16.335Z,46.50
2018-06-02T01:06:16.329Z,46.40
2018-06-02T01:07:16.328Z,45.50
2018-06-02T01:08:16.334Z,44.40
2018-06-02T01:09:16.329Z,44.90
2018-06-02T01:10:16.328Z,44.60
2018-06-02T01:11:16.327Z,44.00
2018-06-02T01:12:16.322Z,45.20
2018-06-02T01:13:16.320Z,44.30
2018-06-02T01:14:16.319Z,43.00
2018-06-02T01:15:16.319Z,41.40
2018-06-02T01:16:16.320Z,42.80
2018-06-02T01:17:16.321Z,42.30
2018-06-02T01:18:16.321Z,40.20
2018-06-02T01:19:16.321Z,41.30
2018-06-02T01:20:16.312Z,41.30
2018-06-02T01:21:16.311Z,39.70
2018-06-02T01:22:16.314Z,39.00
2018-06-02T01:23:16.313Z,40.40
2018-06-02T01:24:16.306Z,39.80
2018-06-02T01:25:16.306Z,39.00
2018-06-02T01:26:16.307Z,37.90
2018-06-02T01:27:16.303Z,38.10
2018-06-02T01:28:16.308Z,39.10
2018-06-02T01:29:16.304Z,36.80
2018-06-02T01:30:16.303Z,36.30
2018-06-02T01:31:16.303Z,36.50
2018-06-02T01:32:16.296Z,36.20
2018-06-02T01:33:16.297Z,36.60
2018-06-02T01:34:16.295Z,36.70
2018-06-02T01:35:16.298Z,36.40
2018-06-02T01:36:16.296Z,35.20
2018-06-02T01:37:16.296Z,34.40
2018-06-02T01:38:16.289Z,35.00
2018-06-02T01:39:16.292Z,35.30
2018-06-02T01:40:16.291Z,35.70
2018-06-02T01:41:16.291Z,36.40
2018-06-02T01:42:16.296Z,35.40
2018-06-02T01:43:16.288Z,35.00
2018-06-02T01:44:16.281Z,36.10
2018-06-02T01:45:16.279Z,35.10
2018-06-02T01:46:16.279Z,35.50
2018-06-02T01:47:16.278Z,35.60
2018-06-02T01:48:16.280Z,33.50
2018-06-02T01:49:16.280Z,35.80
2018-06-02T01:50:16.282Z,35.00
2018-06-02T01:51:16.278Z,35.20
2018-06-02T01:52:16.272Z,34.50
2018-06-02T01:53:16.269Z,34.30
2018-06-02T01:54:16.274Z,34.00
2018-06-02T01:55:16.273Z,34.60
2018-06-02T01:56:16.269Z,34.30
2018-06-02T01:57:16.264Z,33.40
2018-06-02T01:58:16.264Z,33.00
2018-06-02T01:59:16.263Z,33.60
2018-06-02T02:00:16.265Z,34.40
2018-06-02T02:01:16.264Z,34.40
2018-06-02T02:02:16.265Z,34.30
2018-06-02T02:03:16.264Z,34.60
2018-06-02T02:04:16.257Z,35.00
2018-06-02T02:05:16.257Z,35.00
2018-06-02T02:06:16.253Z,35.10
2018-06-02T02:07:16.253Z,36.10
2018-06-02T02:08:16.254Z,35.60
2018-06-02T02:09:16.254Z,34.40
2018-06-02T02:10:16.248Z,34.60
2018-06-02T02:11:16.247Z,35.30
2018-06-02T02:12:16.249Z,34.70
2018-06-02T02:13:16.249Z,34.90
2018-06-02T02:14:16.248Z,35.80
2018-06-02T02:15:16.252Z,34.70
2018-06-02T02:16:16.241Z,34.20
2018-06-02T02:17:16.239Z,35.10
2018-06-02T02:18:16.239Z,33.70
2018-06-02T02:19:16.238Z,33.50
2018-06-02T02:20:16.240Z,33.50
2018-06-02T02:21:16.240Z,33.80
2018-06-02T02:22:16.239Z,35.00
2018-06-02T02:23:16.236Z,34.30
2018-06-02T02:24:16.230Z,32.80
2018-06-02T02:25:16.229Z,33.30
2018-06-02T02:26:16.232Z,35.40
2018-06-02T02:27:16.231Z,34.20
2018-06-02T02:28:16.225Z,36.00
2018-06-02T02:29:16.228Z,35.70
2018-06-02T02:30:16.223Z,36.70
2018-06-02T02:31:16.223Z,35.90
2018-06-02T02:32:16.226Z,37.50
2018-06-02T02:33:16.237Z,36.20
2018-06-02T02:34:16.224Z,36.10
2018-06-02T02:35:16.223Z,35.90
2018-06-02T02:36:16.216Z,35.40
2018-06-02T02:37:16.215Z,35.90
2018-06-02T02:38:16.213Z,38.00
2018-06-02T02:39:16.212Z,38.10
2018-06-02T02:40:16.214Z,38.50
2018-06-02T02:41:16.215Z,38.10
2018-06-02T02:42:16.209Z,38.40
2018-06-02T02:43:16.207Z,38.00
2018-06-02T02:44:16.209Z,37.40
2018-06-02T02:45:16.207Z,37.90
2018-06-02T02:46:16.209Z,39.00
2018-06-02T02:47:16.208Z,38.90
2018-06-02T02:48:16.201Z,39.00
2018-06-02T02:49:16.199Z,38.80
2018-06-02T02:50:16.198Z,38.10
2018-06-02T02:51:16.197Z,39.20
2018-06-02T02:52:16.199Z,40.70
2018-06-02T02:53:16.198Z,40.40
2018-06-02T02:54:16.205Z,41.60
2018-06-02T02:55:16.201Z,40.70
2018-06-02T02:56:16.190Z,40.70
2018-06-02T02:57:16.188Z,41.20
2018-06-02T02:58:16.193Z,40.40
2018-06-02T02:59:16.192Z,41.60
2018-06-02T03:00:16.184Z,43.00
2018-06-02T03:01:16.183Z,42.30
2018-06-02T03:02:16.184Z,43.00
2018-06-02T03:03:16.182Z,43.50
2018-06-02T03:04:16.186Z,42.30
2018-06-02T03:05:16.184Z,44.50
2018-06-02T03:06:16.182Z,44.90
2018-06-02T03:07:16.182Z,44.60
2018-06-02T03:08:16.175Z,44.80
2018-06-02T03:09:16.173Z,45.80
2018-06-02T03:10:16.173Z,46.50
2018-06-02T03:11:16.172Z,47.40
2018-06-02T03:12:16.174Z,47.40
2018-06-02T03:13:16.179Z,47.90
2018-06-02T03:14:16.169Z,47.00
2018-06-02T03:15:16.166Z,47.00
2018-06-02T03:16:16.171Z,47.60
2018-06-02T03:17:16.169Z,47.90
2018-06-02T03:18:16.174Z,47.10
2018-06-02T03:19:16.167Z,48.20
2018-06-02T03:20:16.160Z,48.50
2018-06-02T03:21:16.159Z,50.80
2018-06-02T03:22:16.158Z,50.60
2018-06-02T03:23:16.161Z,48.50
2018-06-02T03:24:16.160Z,49.00
2018-06-02T03:25:16.158Z,50.40
2018-06-02T03:26:16.159Z,49.50
2018-06-02T03:27:16.158Z,49.90
2018-06-02T03:28:16.150Z,51.70
2018-06-02T03:29:16.149Z,50.60
2018-06-02T03:30:16.153Z,50.90
2018-06-02T03:31:16.159Z,49.40
2018-06-02T03:32:16.144Z,50.10
2018-06-02T03:33:16.146Z,51.10
2018-06-02T03:34:16.142Z,51.10
2018-06-02T03:35:16.143Z,50.40
2018-06-02T03:36:16.144Z,50.90
2018-06-02T03:37:16.143Z,52.30
2018-06-02T03:38:16.142Z,52.80
2018-06-02T03:39:16.140Z,51.90
2018-06-02T03:40:16.134Z,50.90
2018-06-02T03:41:16.134Z,50.70
2018-06-02T03:42:16.134Z,50.30
2018-06-02T03:43:16.132Z,50.30
2018-06-02T03:44:16.135Z,51.20
2018-06-02T03:45:16.135Z,49.90
2018-06-02T03:46:16.128Z,50.90
2018-06-02T03:47:16.126Z,52.70
2018-06-02T03:48:16.174Z,49.70
2018-06-02T03:49:16.128Z,52.20
2018-06-02T03:50:16.127Z,51.50
2018-06-02T03:51:16.126Z,53.20
2018-06-02T03:52:16.119Z,54.30
2018-06-02T03:53:16.118Z,52.70
2018-06-02T03:54:16.117Z,53.40
2018-06-02T03:55:16.115Z,52.80
2018-06-02T03:56:16.119Z,52.30
2018-06-02T03:57:16.119Z,54.90
2018-06-02T03:58:16.118Z,53.80
2018-06-02T03:59:16.117Z,55.40
2018-06-02T04:00:16.139Z,54.20
2018-06-02T04:01:16.111Z,55.60
2018-06-02T04:02:16.114Z,56.10
2018-06-02T04:03:16.115Z,54.70
2018-06-02T04:04:16.106Z,54.10
2018-06-02T04:05:16.106Z,53.50
2018-06-02T04:06:16.105Z,55.40
2018-06-02T04:07:16.103Z,55.20
2018-06-02T04:08:16.108Z,53.50
2018-06-02T04:09:16.104Z,55.50
2018-06-02T04:10:16.104Z,55.80
2018-06-02T04:11:16.103Z,55.00
2018-06-02T04:12:16.097Z,54.70
2018-06-02T04:13:16.098Z,54.70
2018-06-02T04:14:16.094Z,55.80
2018-06-02T04:15:16.093Z,54.80
2018-06-02T04:16:16.095Z,55.20
2018-06-02T04:17:16.095Z,54.30
2018-06-02T04:18:16.096Z,55.40
2018-06-02T04:19:16.090Z,55.30
2018-06-02T04:20:16.090Z,56.00
2018-06-02T04:21:16.091Z,56.10
2018-06-02T04:22:16.091Z,55.20
2018-06-02T04:23:16.089Z,58.30
2018-06-02T04:24:16.082Z,54.90
2018-06-02T04:25:16.081Z,55.10
2018-06-02T04:26:16.080Z,56.10
2018-06-02T04:27:16.080Z,56.30
2018-06-02T04:28:16.084Z,56.70
2018-06-02T04:29:16.083Z,56.30
2018-06-02T04:30:16.081Z,56.90
2018-06-02T04:31:16.080Z,58.80
2018-06-02T04:32:16.073Z,58.20
2018-06-02T04:33:16.073Z,59.30
2018-06-02T04:34:16.076Z,58.50
2018-06-02T04:35:16.075Z,58.00
2018-06-02T04:36:16.069Z,58.10
2018-06-02T04:37:16.068Z,59.30
2018-06-02T04:38:16.068Z,58.10
2018-06-02T04:39:16.067Z,56.40
2018-06-02T04:40:16.071Z,59.30
2018-06-02T04:41:16.070Z,58.80
2018-06-02T04:42:16.072Z,58.50
2018-06-02T04:43:16.069Z,57.90
2018-06-02T04:44:16.061Z,58.10
2018-06-02T04:45:16.060Z,58.90
2018-06-02T04:46:16.059Z,60.20
2018-06-02T04:47:16.058Z,57.90
2018-06-02T04:48:16.060Z,58.70
2018-06-02T04:49:16.060Z,60.10
2018-06-02T04:50:16.056Z,59.50
2018-06-02T04:51:16.059Z,60.70
2018-06-02T04:52:16.057Z,60.20
2018-06-02T04:53:16.055Z,60.00
2018-06-02T04:54:16.056Z,61.70
2018-06-02T04:55:16.057Z,58.90
2018-06-02T04:56:16.048Z,61.10
2018-06-02T04:57:16.047Z,60.10
2018-06-02T04:58:16.046Z,58.00
2018-06-02T04:59:16.044Z,59.40
2018-06-02T05:00:16.049Z,61.00
2018-06-02T05:01:16.048Z,59.80
2018-06-02T05:02:16.046Z,59.40
2018-06-02T05:03:16.045Z,59.40
2018-06-02T05:04:16.042Z,58.50
2018-06-02T05:05:16.038Z,58.90
2018-06-02T05:06:16.041Z,58.60
2018-06-02T05:07:16.041Z,61.50
2018-06-02T05:08:16.035Z,60.80
2018-06-02T05:09:16.036Z,64.70
2018-06-02T05:10:16.033Z,64.50
2018-06-02T05:11:16.033Z,63.80
2018-06-02T05:12:16.035Z,62.40
2018-06-02T05:13:16.036Z,59.60
2018-06-02T05:14:16.035Z,62.40
2018-06-02T05:15:16.035Z,63.20
2018-06-02T05:16:16.032Z,63.10
2018-06-02T05:17:16.027Z,63.20
2018-06-02T05:18:16.031Z,60.60
2018-06-02T05:19:16.026Z,60.90
2018-06-02T05:20:16.029Z,60.30
2018-06-02T05:21:16.027Z,61.80
2018-06-02T05:22:16.023Z,60.90
2018-06-02T05:23:16.022Z,60.90
2018-06-02T05:24:16.026Z,60.40
2018-06-02T05:25:16.024Z,63.50
2018-06-02T05:26:16.026Z,63.20
2018-06-02T05:27:16.027Z,62.40
2018-06-02T05:28:16.020Z,61.20
2018-06-02T05:29:16.099Z,64.50
2018-06-02T05:30:16.018Z,64.40
2018-06-02T05:31:16.016Z,63.40
2018-06-02T05:32:16.021Z,63.20
2018-06-02T05:33:16.021Z,62.90
2018-06-02T05:34:16.019Z,64.10
2018-06-02T05:35:16.038Z,63.60
2018-06-02T05:36:16.013Z,65.90
2018-06-02T05:37:16.013Z,62.10
2018-06-02T05:38:16.017Z,65.20
2018-06-02T05:39:16.016Z,63.80
2018-06-02T05:40:16.012Z,64.50
2018-06-02T05:41:16.011Z,64.10
2018-06-02T05:42:16.012Z,63.70
2018-06-02T05:43:16.012Z,65.20
2018-06-02T05:44:16.015Z,64.30
2018-06-02T05:45:16.014Z,64.00
2018-06-02T05:46:16.015Z,63.90
2018-06-02T05:47:16.019Z,66.10
2018-06-02T05:48:16.007Z,64.60
2018-06-02T05:49:16.007Z,67.40
2018-06-02T05:50:16.006Z,62.90
2018-06-02T05:51:16.007Z,63.00
2018-06-02T05:52:16.009Z,63.20
2018-06-02T05:53:16.010Z,66.50
2018-06-02T05:54:16.012Z,62.80
2018-06-02T05:55:16.004Z,62.20
2018-06-02T05:56:16.007Z,64.00
2018-06-02T05:57:16.007Z,63.10
2018-06-02T05:58:16.008Z,65.50
2018-06-02T05:59:16.007Z,65.70
2018-06-02T06:00:16.004Z,64.40
2018-06-02T06:01:16.000Z,62.50
2018-06-02T06:02:16.001Z,64.70
2018-06-02T06:03:16.001Z,64.60
2018-06-02T06:04:16.005Z,64.40
2018-06-02T06:05:16.003Z,65.90
2018-06-02T06:06:16.003Z,64.70
2018-06-02T06:07:16.002Z,63.20
2018-06-02T06:08:15.997Z,64.90
2018-06-02T06:09:15.996Z,67.70
2018-06-02T06:10:16.000Z,68.20
2018-06-02T06:11:16.004Z,64.30
2018-06-02T06:12:15.994Z,66.20
2018-06-02T06:13:15.994Z,66.90
2018-06-02T06:14:15.996Z,66.30
2018-06-02T06:15:15.994Z,66.80
2018-06-02T06:16:15.997Z,66.20
2018-06-02T06:17:15.996Z,64.70
2018-06-02T06:18:15.995Z,67.50
2018-06-02T06:19:15.994Z,66.10
2018-06-02T06:20:15.991Z,66.50
2018-06-02T06:21:15.994Z,68.90
2018-06-02T06:22:15.989Z,68.10
2018-06-02T06:23:15.988Z,66.60
2018-06-02T06:24:15.992Z,64.90
2018-06-02T06:25:15.990Z,69.70
2018-06-02T06:26:15.985Z,65.70
2018-06-02T06:27:15.985Z,66.90
2018-06-02T06:28:15.989Z,65.80
2018-06-02T06:29:15.987Z,66.00
2018-06-02T06:30:15.987Z,63.20
2018-06-02T06:31:15.986Z,63.90
2018-06-02T06:32:15.980Z,63.50
2018-06-02T06:33:15.980Z,61.60
2018-06-02T06:34:15.980Z,60.70
2018-06-02T06:35:15.980Z,59.90
2018-06-02T06:36:15.983Z,61.00
2018-06-02T06:37:15.982Z,58.50
2018-06-02T06:38:15.985Z,59.90
2018-06-02T06:39:15.984Z,58.50
2018-06-02T06:40:15.977Z,56.20
2018-06-02T06:41:15.978Z,57.30
2018-06-02T06:42:15.982Z,57.50
2018-06-02T06:43:15.983Z,53.50
2018-06-02T06:44:15.976Z,54.90
2018-06-02T06:45:15.977Z,52.70
2018-06-02T06:46:15.976Z,50.20
2018-06-02T06:47:15.976Z,50.80
2018-06-02T06:48:15.979Z,48.90
2018-06-02T06:49:15.979Z,50.60
2018-06-02T06:50:15.979Z,49.20
2018-06-02T06:51:15.979Z,47.80
2018-06-02T06:52:15.977Z,46.90
2018-06-02T06:53:15.974Z,49.50
2018-06-02T06:54:15.974Z,47.50
2018-06-02T06:55:15.975Z,47.50
2018-06-02T06:56:15.978Z,47.10
2018-06-02T06:57:15.978Z,45.50
2018-06-02T06:58:15.975Z,47.90
2018-06-02T06:59:15.975Z,48.30
2018-06-02T07:00:15.978Z,46.60
2018-06-02T07:01:15.985Z,44.30
2018-06-02T07:02:15.978Z,42.10
2018-06-02T07:03:15.978Z,40.10
2018-06-02T07:04:15.973Z,37.70
2018-06-02T07:05:15.973Z,36.40
2018-06-02T07:06:15.974Z,37.90
2018-06-02T07:07:15.973Z,35.60
2018-06-02T07:08:15.982Z,34.50
2018-06-02T07:09:15.978Z,33.50
2018-06-02T07:10:15.977Z,33.30
2018-06-02T07:11:15.980Z,31.00
2018-06-02T07:12:15.974Z,32.70
2018-06-02T07:13:15.976Z,32.10
2018-06-02T07:14:15.979Z,31.60
2018-06-02T07:15:15.983Z,30.60
2018-06-02T07:16:15.974Z,29.90
2018-06-02T07:17:15.975Z,29.30
2018-06-02T07:18:15.978Z,30.20
2018-06-02T07:19:15.976Z,29.70
2018-06-02T07:20:15.979Z,30.20
2018-06-02T07:21:15.990Z,29.70
2018-06-02T07:22:15.982Z,28.90
2018-06-02T07:23:15.983Z,29.60
2018-06-02T07:24:15.980Z,28.70
2018-06-02T07:25:15.980Z,30.10
2018-06-02T07:26:15.982Z,28.20
2018-06-02T07:27:15.978Z,29.90
2018-06-02T07:28:15.982Z,29.00
2018-06-02T07:29:15.983Z,30.40
2018-06-02T07:30:15.979Z,28.70
2018-06-02T07:31:15.979Z,29.60
2018-06-02T07:32:15.983Z,30.00
2018-06-02T07:33:15.984Z,29.60
2018-06-02T07:34:15.984Z,29.20
2018-06-02T07:35:15.990Z,28.90
2018-06-02T07:36:15.980Z,30.10
2018-06-02T07:37:15.980Z,28.70
2018-06-02T07:38:15.980Z,29.30
2018-06-02T07:39:15.981Z,28.70
2018-06-02T07:40:15.985Z,28.30
2018-06-02T07:41:15.986Z,28.90
2018-06-02T07:42:15.991Z,29.30
2018-06-02T07:43:15.985Z,28.10
2018-06-02T07:44:16.031Z,28.50
2018-06-02T07:45:15.979Z,29.90
2018-06-02T07:46:15.983Z,28.10
2018-06-02T07:47:15.985Z,27.90
2018-06-02T07:48:15.979Z,27.00
2018-06-02T07:49:15.979Z,26.10
2018-06-02T07:50:15.981Z,25.90
2018-06-02T07:51:15.980Z,25.20
2018-06-02T07:52:15.983Z,25.50
2018-06-02T07:53:15.984Z,24.70
2018-06-02T07:54:15.986Z,24.60
2018-06-02T07:55:15.985Z,23.80
2018-06-02T07:56:15.979Z,24.20
2018-06-02T07:57:15.980Z,23.60
2018-06-02T07:58:15.980Z,23.70
2018-06-02T07:59:15.979Z,23.80
2018-06-02T08:00:15.983Z,23.80
2018-06-02T08:01:15.983Z,22.90
2018-06-02T08:02:15.986Z,23.30
2018-06-02T08:03:15.980Z,24.20
2018-06-02T08:04:15.983Z,23.70
2018-06-02T08:05:15.989Z,24.30
2018-06-02T08:06:15.984Z,24.30
2018-06-02T08:07:15.986Z,23.90
2018-06-02T08:08:15.981Z,22.90
2018-06-02T08:09:15.981Z,23.10
2018-06-02T08:10:15.982Z,22.20
2018-06-02T08:11:15.982Z,24.00
2018-06-02T08:12:15.986Z,23.80
2018-06-02T08:13:15.986Z,22.80
2018-06-02T08:14:15.986Z,24.00
2018-06-02T08:15:15.987Z,23.70
2018-06-02T08:16:15.981Z,23.90
2018-06-02T08:17:15.987Z,23.60
2018-06-02T08:18:15.988Z,22.90
2018-06-02T08:19:15.987Z,22.90
2018-06-02T08:20:15.983Z,22.00
2018-06-02T08:21:15.983Z,22.80
2018-06-02T08:22:15.984Z,22.90
2018-06-02T08:23:15.985Z,22.40
2018-06-02T08:24:15.993Z,22.70
2018-06-02T08:25:15.993Z,22.10
2018-06-02T08:26:15.990Z,22.40
2018-06-02T08:27:15.991Z,22.30
2018-06-02T08:28:15.986Z,22.80
2018-06-02T08:29:15.986Z,22.70
2018-06-02T08:30:15.989Z,22.80
2018-06-02T08:31:15.988Z,21.60
2018-06-02T08:32:15.994Z,22.40
2018-06-02T08:33:15.993Z,21.30
2018-06-02T08:34:15.991Z,21.00
2018-06-02T08:35:15.991Z,22.40
2018-06-02T08:36:15.997Z,22.20
2018-06-02T08:37:16.001Z,22.30
2018-06-02T08:38:15.997Z,21.60
2018-06-02T08:39:15.997Z,22.90
2018-06-02T08:40:15.992Z,22.60
2018-06-02T08:41:15.992Z,21.80
2018-06-02T08:42:15.993Z,21.90
2018-06-02T08:43:15.994Z,22.50
2018-06-02T08:44:15.999Z,21.70
2018-06-02T08:45:15.999Z,21.00
2018-06-02T08:46:16.001Z,21.10
2018-06-02T08:47:16.002Z,20.90
2018-06-02T08:48:15.996Z,20.60
2018-06-02T08:49:15.997Z,19.70
2018-06-02T08:50:16.004Z,19.00
2018-06-02T08:51:16.005Z,18.20
2018-06-02T08:52:15.999Z,18.00
2018-06-02T08:53:16.000Z,17.50
2018-06-02T08:54:16.001Z,18.10
2018-06-02T08:55:16.001Z,17.90
2018-06-02T08:56:16.010Z,17.70
2018-06-02T08:57:16.008Z,17.00
2018-06-02T08:58:16.009Z,16.70
2018-06-02T08:59:16.012Z,16.40
2018-06-02T09:00:16.006Z,16.40
2018-06-02T09:01:16.007Z,17.10
2018-06-02T09:02:16.010Z,15.90
2018-06-02T09:03:16.011Z,16.40
2018-06-02T09:04:16.015Z,16.00
2018-06-02T09:05:16.018Z,16.10
2018-06-02T09:06:16.013Z,16.50
2018-06-02T09:07:16.015Z,15.70
2018-06-02T09:08:16.020Z,16.70
2018-06-02T09:09:16.020Z,17.20
2018-06-02T09:10:16.021Z,16.80
2018-06-02T09:11:16.023Z,17.30
2018-06-02T09:12:16.022Z,16.50
2018-06-02T09:13:16.024Z,17.60
2018-06-02T09:14:16.021Z,17.40
2018-06-02T09:15:16.027Z,17.80
2018-06-02T09:16:16.033Z,17.00
2018-06-02T09:17:16.029Z,17.20
2018-06-02T09:18:16.033Z,17.50
2018-06-02T09:19:16.034Z,17.70
2018-06-02T09:20:16.028Z,17.80
2018-06-02T09:21:16.030Z,17.40
2018-06-02T09:22:16.036Z,17.60
2018-06-02T09:23:16.037Z,17.90
2018-06-02T09:24:16.037Z,18.40
2018-06-02T09:25:16.035Z,17.70
2018-06-02T09:26:16.037Z,17.50
2018-06-02T09:27:16.038Z,18.10
2018-06-02T09:28:16.043Z,18.10
2018-06-02T09:29:16.045Z,17.80
2018-06-02T09:30:16.044Z,17.70
2018-06-02T09:31:16.045Z,17.30
2018-06-02T09:32:16.050Z,17.20
2018-06-02T09:33:16.053Z,18.10
2018-06-02T09:34:16.053Z,17.80
2018-06-02T09:35:16.084Z,17.70
2018-06-02T09:36:16.054Z,17.90
2018-06-02T09:37:16.056Z,17.60
2018-06-02T09:38:16.063Z,17.80
2018-06-02T09:39:16.065Z,17.30
2018-06-02T09:40:16.063Z,17.90
2018-06-02T09:41:16.066Z,17.00
2018-06-02T09:42:16.072Z,16.80
2018-06-02T09:43:16.074Z,17.10
2018-06-02T09:44:16.080Z,16.40
2018-06-02T09:45:16.083Z,17.20
2018-06-02T09:46:16.086Z,16.50
2018-06-02T09:47:16.090Z,16.50
2018-06-02T09:48:16.088Z,16.80
2018-06-02T09:49:16.091Z,16.70
2018-06-02T09:50:16.095Z,16.90
2018-06-02T09:51:16.099Z,16.90
2018-06-02T09:52:16.106Z,16.30
2018-06-02T09:53:16.110Z,16.00
2018-06-02T09:54:16.109Z,16.00
2018-06-02T09:55:16.113Z,16.30
2018-06-02T09:56:16.122Z,16.30
2018-06-02T09:57:16.124Z,16.50
2018-06-02T09:58:16.130Z,16.40
2018-06-02T09:59:16.137Z,16.60
2018-06-02T10:00:16.131Z,16.80
2018-06-02T10:01:16.135Z,17.20
2018-06-02T10:02:16.140Z,17.20
2018-06-02T10:03:16.144Z,16.90
2018-06-02T10:04:16.151Z,17.10
2018-06-02T10:05:16.164Z,17.80
2018-06-02T10:06:16.159Z,16.70
2018-06-02T10:07:16.162Z,16.20
2018-06-02T10:08:16.162Z,15.70
2018-06-02T10:09:16.166Z,16.80
2018-06-02T10:10:16.175Z,16.70
2018-06-02T10:11:16.178Z,16.70
2018-06-02T10:12:16.177Z,15.70
2018-06-02T10:13:16.181Z,16.30
2018-06-02T10:14:16.187Z,15.70
2018-06-02T10:15:16.192Z,15.60
2018-06-02T10:16:16.201Z,16.60
2018-06-02T10:17:16.203Z,15.20
2018-06-02T10:18:16.211Z,15.10
2018-06-02T10:19:16.212Z,15.10
2018-06-02T10:20:16.213Z,15.90
2018-06-02T10:21:16.221Z,15.80
2018-06-02T10:22:16.223Z,15.60
2018-06-02T10:23:16.228Z,14.70
2018-06-02T10:24:16.234Z,16.20
2018-06-02T10:25:16.239Z,15.20
2018-06-02T10:26:16.247Z,15.10
2018-06-02T10:27:16.246Z,15.90
2018-06-02T10:28:16.258Z,15.10
2018-06-02T10:29:16.259Z,15.00
2018-06-02T10:30:16.265Z,15.90
2018-06-02T10:31:16.276Z,15.70
2018-06-02T10:32:16.269Z,15.60
2018-06-02T10:33:16.275Z,15.50
2018-06-02T10:34:16.279Z,15.80
2018-06-02T10:35:16.285Z,15.60
2018-06-02T10:36:16.301Z,14.90
2018-06-02T10:37:16.298Z,15.40
2018-06-02T10:38:16.305Z,14.80
2018-06-02T10:39:16.309Z,14.70
2018-06-02T10:40:16.309Z,15.00
2018-06-02T10:41:16.316Z,14.40
2018-06-02T10:42:16.326Z,14.60
2018-06-02T10:43:16.330Z,14.80
2018-06-02T10:44:16.333Z,14.40
2018-06-02T10:45:16.337Z,15.00
2018-06-02T10:46:16.342Z,15.30
2018-06-02T10:47:16.349Z,15.40
2018-06-02T10:48:16.358Z,15.30
2018-06-02T10:49:16.363Z,15.60
2018-06-02T10:50:16.368Z,15.20
2018-06-02T10:51:16.376Z,14.50
2018-06-02T10:52:16.373Z,15.30
2018-06-02T10:53:16.380Z,14.90
2018-06-02T10:54:16.385Z,15.10
2018-06-02T10:55:16.390Z,14.80
2018-06-02T10:56:16.398Z,15.10
2018-06-02T10:57:16.404Z,15.30
2018-06-02T10:58:16.404Z,15.80
2018-06-02T10:59:16.409Z,15.10
2018-06-02T11:00:16.417Z,15.60
2018-06-02T11:01:16.422Z,15.60
2018-06-02T11:02:16.427Z,15.00
2018-06-02T11:03:16.432Z,16.60
2018-06-02T11:04:16.431Z,15.30
2018-06-02T11:05:16.436Z,16.00
2018-06-02T11:06:16.443Z,15.50
2018-06-02T11:07:16.449Z,16.60
2018-06-02T11:08:16.453Z,16.20
2018-06-02T11:09:16.457Z,15.50
2018-06-02T11:10:16.462Z,15.60
2018-06-02T11:11:16.467Z,15.10
2018-06-02T11:12:16.465Z,15.60
2018-06-02T11:13:16.469Z,16.20
2018-06-02T11:14:16.479Z,15.70
2018-06-02T11:15:16.484Z,16.40
2018-06-02T11:16:16.481Z,16.50
2018-06-02T11:17:16.487Z,15.90
2018-06-02T11:18:16.494Z,16.30
2018-06-02T11:19:16.495Z,16.00
2018-06-02T11:20:16.502Z,16.10
2018-06-02T11:21:16.509Z,15.60
2018-06-02T11:22:16.513Z,15.80
2018-06-02T11:23:16.516Z,15.70
2018-06-02T11:24:16.512Z,15.50
2018-06-02T11:25:16.517Z,15.30
2018-06-02T11:26:16.522Z,15.20
2018-06-02T11:27:16.525Z,15.80
2018-06-02T11:28:16.531Z,15.40
2018-06-02T11:29:16.536Z,15.30
2018-06-02T11:30:16.535Z,15.20
2018-06-02T11:31:16.539Z,15.40
2018-06-02T11:32:16.548Z,15.10
2018-06-02T11:33:16.551Z,15.10
2018-06-02T11:34:16.553Z,15.10
2018-06-02T11:35:16.558Z,15.00
2018-06-02T11:36:16.556Z,15.00
2018-06-02T11:37:16.560Z,15.30
2018-06-02T11:38:16.564Z,15.20
2018-06-02T11:39:16.569Z,14.70
2018-06-02T11:40:16.576Z,14.80
2018-06-02T11:41:16.580Z,14.90
2018-06-02T11:42:16.582Z,14.60
2018-06-02T11:43:16.587Z,14.50
2018-06-02T11:44:16.607Z,14.30
2018-06-02T11:45:16.589Z,14.00
2018-06-02T11:46:16.603Z,14.80
2018-06-02T11:47:16.603Z,14.60
2018-06-02T11:48:16.603Z,14.00
2018-06-02T11:49:16.603Z,14.20
2018-06-02T11:50:16.611Z,14.20
2018-06-02T11:51:16.612Z,14.40
2018-06-02T11:52:16.623Z,14.10
2018-06-02T11:53:16.625Z,14.10
2018-06-02T11:54:16.627Z,14.00
2018-06-02T11:55:16.633Z,14.10
2018-06-02T11:56:16.629Z,14.40
2018-06-02T11:57:16.632Z,14.00
2018-06-02T11:58:16.636Z,13.70
2018-06-02T11:59:16.642Z,14.00
2018-06-02T12:00:16.651Z,14.20
2018-06-02T12:01:16.651Z,14.00
2018-06-02T12:02:16.651Z,14.30
2018-06-02T12:03:16.655Z,14.20
2018-06-02T12:04:16.663Z,14.40
2018-06-02T12:05:16.666Z,14.00
2018-06-02T12:06:16.671Z,13.90
2018-06-02T12:07:16.676Z,14.10
2018-06-02T12:08:16.673Z,13.90
2018-06-02T12:09:16.676Z,13.50
2018-06-02T12:10:16.681Z,13.40
2018-06-02T12:11:16.687Z,13.90
2018-06-02T12:12:16.694Z,13.60
2018-06-02T12:13:16.701Z,12.50
2018-06-02T12:14:16.701Z,12.40
2018-06-02T12:15:16.705Z,13.10
2018-06-02T12:16:16.704Z,13.00
2018-06-02T12:17:16.709Z,12.80
2018-06-02T12:18:16.717Z,12.70
2018-06-02T12:19:16.727Z,12.20
2018-06-02T12:20:16.721Z,12.10
2018-06-02T12:21:16.729Z,12.30
2018-06-02T12:22:16.731Z,11.90
2018-06-02T12:23:16.736Z,11.90
2018-06-02T12:24:16.749Z,11.90
2018-06-02T12:25:16.750Z,11.50
2018-06-02T12:26:16.756Z,12.00
2018-06-02T12:27:16.760Z,12.00
2018-06-02T12:28:16.784Z,11.50
2018-06-02T12:29:16.763Z,11.20
2018-06-02T12:30:16.770Z,11.20
2018-06-02T12:31:16.777Z,10.90
2018-06-02T12:32:16.783Z,10.90
2018-06-02T12:33:16.787Z,10.90
2018-06-02T12:34:16.787Z,11.10
2018-06-02T12:35:16.800Z,10.70
2018-06-02T12:36:16.802Z,10.90
2018-06-02T12:37:16.807Z,10.80
2018-06-02T12:38:16.812Z,11.50
2018-06-02T12:39:16.816Z,11.60
2018-06-02T12:40:16.823Z,12.10
2018-06-02T12:41:16.820Z,11.70
2018-06-02T12:42:16.826Z,12.00
2018-06-02T12:43:16.830Z,12.10
2018-06-02T12:44:16.838Z,11.90
2018-06-02T12:45:16.843Z,11.30
2018-06-02T12:46:16.848Z,11.40
2018-06-02T12:47:16.854Z,11.20
2018-06-02T12:48:16.858Z,10.80
2018-06-02T12:49:16.857Z,11.40
2018-06-02T12:50:16.868Z,11.70
2018-06-02T12:51:16.872Z,11.00
2018-06-02T12:52:16.872Z,11.10